Time;durP1;ratioP1;P1;durP2;ratioP2;P2;SDS_P1;SDS_P2;PMS_P1;PMS_P2;Temp;Humidity;BMP_temperature;BMP_pressure;BME280_temperature;BME280_humidity;BME280_pressure;Samples;Min_cycle;Max_cycle;Signal;HPM_P1;HPM_P2
2022/10/17 00:00:51;;;;;;;6.57;2.25;;;;;;;;;;5046338;28;20036;-80
2022/10/17 00:03:21;;;;;;;3.53;2.38;;;;;;;;;;5069947;28;20037;-80
2022/10/17 00:05:47;;;;;;;4.32;2.63;;;;;;;;;;5070440;28;20032;-81
2022/10/17 00:08:20;;;;;;;5.93;2.90;;;;;;;;;;5071074;28;20394;-81
2022/10/17 00:10:54;;;;;;;9.95;3.80;;;;;;;;;;5071195;28;20028;-80
2022/10/17 00:13:22;;;;;;;8.90;3.60;;;;;;;;;;5066707;28;20408;-80
2022/10/17 00:15:51;;;;;;;7.88;3.10;;;;;;;;;;5070168;28;20401;-80
2022/10/17 00:18:21;;;;;;;8.52;3.20;;;;;;;;;;5071348;28;20028;-80
2022/10/17 00:20:49;;;;;;;7.75;3.40;;;;;;;;;;5071023;28;20040;-80
2022/10/17 00:23:15;;;;;;;10.45;2.25;;;;;;;;;;5062113;28;20040;-80
2022/10/17 00:25:44;;;;;;;12.90;2.80;;;;;;;;;;5066126;28;20028;-80
2022/10/17 00:28:16;;;;;;;4.28;2.85;;;;;;;;;;5070012;28;20055;-80
2022/10/17 00:30:56;;;;;;;8.18;2.78;;;;;;;;;;5070745;28;20528;-80
2022/10/17 00:33:21;;;;;;;13.05;2.60;;;;;;;;;;5068805;28;20035;-80
2022/10/17 00:35:47;;;;;;;5.03;2.85;;;;;;;;;;5069966;28;20032;-80
2022/10/17 00:38:16;;;;;;;12.65;3.22;;;;;;;;;;5064340;28;20036;-80
2022/10/17 00:40:42;;;;;;;9.25;2.92;;;;;;;;;;5070413;28;20475;-80
2022/10/17 00:43:16;;;;;;;3.78;2.63;;;;;;;;;;5064511;28;20044;-80
2022/10/17 00:45:44;;;;;;;4.47;3.13;;;;;;;;;;5066654;28;20032;-80
2022/10/17 00:48:17;;;;;;;17.23;3.80;;;;;;;;;;5070067;28;20036;-80
2022/10/17 00:50:45;;;;;;;11.18;3.70;;;;;;;;;;5070198;28;20035;-80
2022/10/17 00:53:11;;;;;;;11.10;3.95;;;;;;;;;;5057871;28;20052;-80
2022/10/17 00:55:41;;;;;;;12.68;3.45;;;;;;;;;;5065708;28;20024;-79
2022/10/17 00:58:11;;;;;;;7.88;3.25;;;;;;;;;;5068553;28;20525;-79
2022/10/17 01:00:37;;;;;;;11.82;4.53;;;;;;;;;;5071549;28;20060;-80
2022/10/17 01:03:03;;;;;;;11.10;3.67;;;;;;;;;;5067718;28;20020;-80
2022/10/17 01:05:31;;;;;;;17.92;5.05;;;;;;;;;;5068132;28;20391;-80
2022/10/17 01:07:57;;;;;;;12.50;4.40;;;;;;;;;;5068567;28;20482;-80
2022/10/17 01:10:28;;;;;;;11.23;4.55;;;;;;;;;;5069349;28;20043;-80
2022/10/17 01:13:01;;;;;;;5.57;2.97;;;;;;;;;;5068044;28;20020;-80
2022/10/17 01:15:35;;;;;;;30.77;6.10;;;;;;;;;;5061736;28;20029;-80
2022/10/17 01:18:19;;;;;;;20.20;4.63;;;;;;;;;;5068495;28;20531;-80
2022/10/17 01:21:05;;;;;;;6.45;2.53;;;;;;;;;;5068172;28;20040;-80
2022/10/17 01:23:33;;;;;;;14.88;3.35;;;;;;;;;;5068574;28;20390;-80
2022/10/17 01:26:21;;;;;;;6.97;3.33;;;;;;;;;;5067615;28;20028;-80
2022/10/17 01:28:50;;;;;;;16.05;4.35;;;;;;;;;;5067470;28;20281;-80
2022/10/17 01:31:23;;;;;;;13.00;3.90;;;;;;;;;;5069186;28;20028;-80
2022/10/17 01:34:24;;;;;;;3.03;2.15;;;;;;;;;;5070297;28;20033;-80
2022/10/17 01:36:52;;;;;;;10.57;2.78;;;;;;;;;;5044177;28;20033;-80
2022/10/17 01:39:24;;;;;;;4.50;2.42;;;;;;;;;;5073383;28;20032;-80
2022/10/17 01:41:50;;;;;;;7.18;2.58;;;;;;;;;;5070427;28;20032;-80
2022/10/17 01:44:21;;;;;;;9.38;3.17;;;;;;;;;;5069408;28;20030;-80
2022/10/17 01:46:55;;;;;;;6.10;2.83;;;;;;;;;;5054955;28;20036;-79
2022/10/17 01:49:26;;;;;;;4.47;2.38;;;;;;;;;;5072701;28;20397;-79
2022/10/17 01:51:58;;;;;;;8.50;2.88;;;;;;;;;;5074058;28;20032;-79
2022/10/17 01:54:30;;;;;;;14.55;3.72;;;;;;;;;;5057137;28;20072;-80
2022/10/17 01:56:58;;;;;;;10.88;3.03;;;;;;;;;;5079899;28;20029;-80
2022/10/17 01:59:28;;;;;;;10.57;3.38;;;;;;;;;;5073578;28;20035;-80
2022/10/17 02:01:55;;;;;;;12.40;2.25;;;;;;;;;;5070463;28;20033;-80
2022/10/17 02:04:21;;;;;;;3.75;2.08;;;;;;;;;;5051894;28;20032;-80
2022/10/17 02:06:52;;;;;;;13.18;3.10;;;;;;;;;;5069679;28;20039;-80
2022/10/17 02:09:26;;;;;;;12.32;3.42;;;;;;;;;;5073214;28;20036;-80
2022/10/17 02:12:01;;;;;;;11.05;1.75;;;;;;;;;;5064220;28;20398;-80
2022/10/17 02:14:48;;;;;;;20.23;3.67;;;;;;;;;;5073655;28;20401;-80
2022/10/17 02:17:20;;;;;;;8.00;2.40;;;;;;;;;;5071286;28;20039;-80
2022/10/17 02:20:11;;;;;;;4.53;2.72;;;;;;;;;;5056801;28;20047;-80
2022/10/17 02:22:40;;;;;;;12.73;3.17;;;;;;;;;;5059532;28;20044;-80
2022/10/17 02:25:24;;;;;;;31.33;3.28;;;;;;;;;;5090294;28;20033;-80
2022/10/17 02:27:58;;;;;;;16.77;3.63;;;;;;;;;;5071908;28;20032;-80
2022/10/17 02:30:34;;;;;;;15.02;2.78;;;;;;;;;;5072138;28;20029;-80
2022/10/17 02:33:09;;;;;;;28.15;3.28;;;;;;;;;;5073874;28;20494;-80
2022/10/17 02:35:40;;;;;;;7.20;2.35;;;;;;;;;;5072674;28;20390;-80
2022/10/17 02:38:08;;;;;;;11.48;2.85;;;;;;;;;;5069205;28;20037;-80
2022/10/17 02:40:35;;;;;;;14.00;3.30;;;;;;;;;;5070039;28;20032;-80
2022/10/17 02:43:05;;;;;;;19.95;2.65;;;;;;;;;;5070422;28;20033;-80
2022/10/17 02:45:34;;;;;;;8.68;1.75;;;;;;;;;;5072437;28;20024;-80
2022/10/17 02:48:13;;;;;;;22.52;4.00;;;;;;;;;;5063555;28;20025;-79
2022/10/17 02:50:53;;;;;;;7.70;2.30;;;;;;;;;;5054051;28;20043;-79
2022/10/17 02:53:42;;;;;;;5.88;1.85;;;;;;;;;;5072698;28;20033;-80
2022/10/17 02:56:16;;;;;;;7.80;2.17;;;;;;;;;;5066919;28;20402;-80
2022/10/17 02:58:43;;;;;;;1.67;1.33;;;;;;;;;;5071062;28;20230;-80
2022/10/17 03:01:12;;;;;;;15.90;3.05;;;;;;;;;;5071684;28;20029;-80
2022/10/17 03:03:38;;;;;;;4.90;2.00;;;;;;;;;;5073870;28;20039;-79
2022/10/17 03:06:06;;;;;;;8.13;2.55;;;;;;;;;;5067717;28;20033;-80
2022/10/17 03:08:32;;;;;;;10.50;1.80;;;;;;;;;;5067889;28;20049;-80
2022/10/17 03:11:01;;;;;;;7.55;2.20;;;;;;;;;;5070698;28;20027;-80
2022/10/17 03:13:28;;;;;;;7.97;1.83;;;;;;;;;;5064907;28;20025;-80
2022/10/17 03:15:55;;;;;;;14.38;2.30;;;;;;;;;;5071763;28;20041;-80
2022/10/17 03:18:23;;;;;;;5.07;1.70;;;;;;;;;;5070709;28;20025;-80
2022/10/17 03:20:53;;;;;;;3.80;2.13;;;;;;;;;;5054426;28;20025;-80
2022/10/17 03:23:19;;;;;;;13.77;2.35;;;;;;;;;;5071461;28;20040;-80
2022/10/17 03:25:44;;;;;;;5.45;2.35;;;;;;;;;;5054559;28;20036;-80
2022/10/17 03:28:18;;;;;;;5.40;2.20;;;;;;;;;;5054784;28;20033;-80
2022/10/17 03:30:47;;;;;;;4.88;1.98;;;;;;;;;;5056867;28;20386;-80
2022/10/17 03:33:15;;;;;;;9.63;1.77;;;;;;;;;;5055376;28;20028;-80
2022/10/17 03:35:43;;;;;;;19.38;2.45;;;;;;;;;;5070080;28;20040;-80
2022/10/17 03:38:09;;;;;;;5.28;1.75;;;;;;;;;;5064098;28;20020;-80
2022/10/17 03:40:40;;;;;;;3.10;1.95;;;;;;;;;;5069182;28;20390;-79
2022/10/17 03:43:10;;;;;;;8.23;2.13;;;;;;;;;;5054708;28;20032;-80
2022/10/17 03:45:40;;;;;;;11.52;2.50;;;;;;;;;;5069468;28;20047;-80
2022/10/17 03:48:06;;;;;;;5.28;2.28;;;;;;;;;;5070810;28;20043;-80
2022/10/17 03:50:36;;;;;;;5.72;2.83;;;;;;;;;;5062426;28;20490;-80
2022/10/17 03:53:04;;;;;;;5.13;1.88;;;;;;;;;;5051565;28;20021;-80
2022/10/17 03:55:30;;;;;;;4.03;2.72;;;;;;;;;;5053775;28;20055;-80
2022/10/17 03:57:59;;;;;;;3.00;1.80;;;;;;;;;;5071254;28;20029;-79
2022/10/17 04:00:30;;;;;;;4.05;1.88;;;;;;;;;;5056847;28;20039;-79
2022/10/17 04:02:59;;;;;;;6.72;2.35;;;;;;;;;;5063365;28;20051;-79
2022/10/17 04:05:31;;;;;;;4.03;2.40;;;;;;;;;;5084610;28;20059;-80
2022/10/17 04:08:01;;;;;;;2.25;1.38;;;;;;;;;;5054975;28;20024;-80
2022/10/17 04:10:51;;;;;;;4.93;2.60;;;;;;;;;;5062180;28;20048;-79
2022/10/17 04:13:20;;;;;;;4.57;1.85;;;;;;;;;;5071145;28;20040;-79
2022/10/17 04:15:57;;;;;;;10.20;2.17;;;;;;;;;;5069366;28;20036;-80
2022/10/17 04:18:26;;;;;;;4.40;2.58;;;;;;;;;;5054421;28;20037;-80
2022/10/17 04:20:57;;;;;;;7.38;2.17;;;;;;;;;;5050104;28;20047;-80
2022/10/17 04:23:26;;;;;;;4.75;2.28;;;;;;;;;;5067966;28;20043;-80
2022/10/17 04:25:58;;;;;;;7.57;3.00;;;;;;;;;;5068120;28;20401;-80
2022/10/17 04:28:27;;;;;;;4.80;2.40;;;;;;;;;;5068663;28;20417;-80
2022/10/17 04:31:07;;;;;;;10.23;2.30;;;;;;;;;;5061582;28;20036;-80
2022/10/17 04:33:45;;;;;;;6.97;1.80;;;;;;;;;;5066800;28;20039;-80
2022/10/17 04:36:17;;;;;;;3.92;2.47;;;;;;;;;;5052674;28;20029;-80
2022/10/17 04:38:43;;;;;;;2.83;1.35;;;;;;;;;;5061476;28;20024;-80
2022/10/17 04:41:11;;;;;;;3.42;2.10;;;;;;;;;;5053417;28;20032;-80
2022/10/17 04:43:39;;;;;;;9.88;2.35;;;;;;;;;;5064484;28;20025;-81
2022/10/17 04:46:11;;;;;;;7.45;3.92;;;;;;;;;;5070618;28;20029;-81
2022/10/17 04:48:43;;;;;;;15.23;2.38;;;;;;;;;;5059347;28;20086;-81
2022/10/17 04:51:13;;;;;;;10.35;3.42;;;;;;;;;;5069844;28;20032;-81
2022/10/17 04:53:51;;;;;;;7.78;4.68;;;;;;;;;;5055059;28;20029;-81
2022/10/17 04:56:18;;;;;;;13.98;5.57;;;;;;;;;;5069919;28;20035;-81
2022/10/17 04:58:47;;;;;;;14.20;5.45;;;;;;;;;;5062272;28;20360;-81
2022/10/17 05:01:14;;;;;;;9.10;4.53;;;;;;;;;;5070759;28;20024;-81
2022/10/17 05:03:46;;;;;;;9.02;4.45;;;;;;;;;;5068508;28;20040;-81
2022/10/17 05:06:17;;;;;;;14.85;4.05;;;;;;;;;;5053432;28;20067;-81
2022/10/17 05:08:51;;;;;;;4.60;3.08;;;;;;;;;;5068705;28;20045;-81
2022/10/17 05:11:23;;;;;;;8.38;2.80;;;;;;;;;;5068181;28;20496;-81
2022/10/17 05:13:53;;;;;;;14.65;3.78;;;;;;;;;;5064262;28;20017;-81
2022/10/17 05:16:22;;;;;;;8.77;2.55;;;;;;;;;;5069482;28;20037;-81
2022/10/17 05:18:52;;;;;;;;;;;;;;;;;;5054349;28;20060;-81
2022/10/17 05:21:23;;;;;;;4.18;2.65;;;;;;;;;;5069472;28;19908;-81
2022/10/17 05:23:53;;;;;;;6.78;3.08;;;;;;;;;;5069381;28;20025;-81
2022/10/17 05:26:24;;;;;;;10.77;4.20;;;;;;;;;;5068529;28;20032;-81
2022/10/17 05:28:55;;;;;;;20.58;6.63;;;;;;;;;;5061202;28;20044;-81
2022/10/17 05:31:26;;;;;;;25.88;6.35;;;;;;;;;;5053210;28;20503;-81
2022/10/17 05:33:52;;;;;;;16.63;7.57;;;;;;;;;;5061923;28;20028;-81
2022/10/17 05:36:18;;;;;;;8.75;4.85;;;;;;;;;;5069672;28;20540;-81
2022/10/17 05:38:47;;;;;;;10.68;5.32;;;;;;;;;;5053201;28;20075;-81
2022/10/17 05:41:16;;;;;;;9.95;2.83;;;;;;;;;;5067909;28;20390;-81
2022/10/17 05:43:42;;;;;;;3.90;2.67;;;;;;;;;;5069167;28;20032;-81
2022/10/17 05:46:15;;;;;;;4.43;2.58;;;;;;;;;;5065346;28;20398;-81
2022/10/17 05:48:41;;;;;;;14.48;4.35;;;;;;;;;;5081058;22;20056;-72
2022/10/17 05:51:08;;;;;;;9.15;3.70;;;;;;;;;;5032984;28;20021;-73
2022/10/17 05:53:38;;;;;;;11.55;3.78;;;;;;;;;;5029355;28;20506;-72
2022/10/17 05:56:11;;;;;;;6.50;4.57;;;;;;;;;;5036630;28;20479;-73
2022/10/17 05:58:42;;;;;;;10.90;2.60;;;;;;;;;;5052249;28;20029;-74
2022/10/17 06:01:15;;;;;;;4.47;1.95;;;;;;;;;;5045250;28;20280;-73
2022/10/17 06:03:41;;;;;;;5.65;2.50;;;;;;;;;;5053635;28;20025;-73
2022/10/17 06:06:10;;;;;;;9.90;3.15;;;;;;;;;;5048758;28;20033;-74
2022/10/17 06:08:38;;;;;;;7.50;2.60;;;;;;;;;;5065115;28;20032;-73
2022/10/17 06:11:06;;;;;;;16.83;3.35;;;;;;;;;;5037939;28;20029;-73
2022/10/17 06:13:32;;;;;;;13.00;3.80;;;;;;;;;;5039196;28;20041;-73
2022/10/17 06:16:03;;;;;;;4.10;2.40;;;;;;;;;;5038805;28;20479;-73
2022/10/17 06:18:29;;;;;;;6.75;3.20;;;;;;;;;;5052011;28;20033;-73
2022/10/17 06:21:02;;;;;;;3.70;3.35;;;;;;;;;;5049860;28;20510;-73
2022/10/17 06:23:29;;;;;;;9.48;4.13;;;;;;;;;;5052125;28;20040;-74
2022/10/17 06:26:05;;;;;;;11.35;3.45;;;;;;;;;;5048165;28;20044;-73
2022/10/17 06:28:34;;;;;;;7.28;3.53;;;;;;;;;;5049660;28;20033;-73
2022/10/17 06:31:09;;;;;;;3.30;2.53;;;;;;;;;;5050628;28;20041;-73
2022/10/17 06:33:35;;;;;;;11.18;4.45;;;;;;;;;;5020023;28;20036;-73
2022/10/17 06:36:02;;;;;;;4.72;4.32;;;;;;;;;;5048748;28;20479;-72
2022/10/17 06:38:34;;;;;;;8.15;4.25;;;;;;;;;;5045795;28;20398;-73
2022/10/17 06:41:09;;;;;;;5.32;3.97;;;;;;;;;;5042079;28;20041;-73
2022/10/17 06:43:38;;;;;;;12.85;6.32;;;;;;;;;;5048865;28;20033;-74
2022/10/17 06:46:41;;;;;;;12.27;4.60;;;;;;;;;;5047294;28;20025;-73
2022/10/17 06:49:10;;;;;;;4.72;3.72;;;;;;;;;;5042237;28;20403;-73
2022/10/17 06:51:55;;;;;;;5.22;4.13;;;;;;;;;;5046318;28;20029;-73
2022/10/17 06:54:30;;;;;;;6.95;3.85;;;;;;;;;;5032774;28;20268;-73
2022/10/17 06:57:10;;;;;;;4.55;3.60;;;;;;;;;;5020901;28;20029;-73
2022/10/17 06:59:57;;;;;;;4.75;3.35;;;;;;;;;;5046090;28;20030;-73
2022/10/17 07:02:29;;;;;;;4.15;3.67;;;;;;;;;;5027587;28;20033;-74
2022/10/17 07:04:58;;;;;;;3.88;3.03;;;;;;;;;;5043818;28;20394;-73
2022/10/17 07:07:29;;;;;;;4.75;3.70;;;;;;;;;;5034593;28;20040;-73
2022/10/17 07:09:54;;;;;;;8.63;3.78;;;;;;;;;;5049910;28;20100;-73
2022/10/17 07:12:20;;;;;;;4.63;3.13;;;;;;;;;;5045016;28;20029;-74
2022/10/17 07:14:49;;;;;;;3.25;2.20;;;;;;;;;;5033211;28;20033;-74
2022/10/17 07:17:15;;;;;;;4.63;2.33;;;;;;;;;;5042659;28;20048;-74
2022/10/17 07:19:44;;;;;;;4.22;3.22;;;;;;;;;;5045595;28;20395;-73
2022/10/17 07:22:12;;;;;;;3.60;3.17;;;;;;;;;;5041850;28;20017;-73
2022/10/17 07:24:42;;;;;;;5.72;3.47;;;;;;;;;;5037511;28;20040;-73
2022/10/17 07:27:19;;;;;;;6.13;3.25;;;;;;;;;;5042384;28;20056;-73
2022/10/17 07:29:50;;;;;;;4.15;2.80;;;;;;;;;;5033781;28;20040;-73
2022/10/17 07:32:37;;;;;;;5.20;2.67;;;;;;;;;;5025291;28;20029;-73
2022/10/17 07:35:04;;;;;;;3.28;2.42;;;;;;;;;;5041978;28;20040;-74
2022/10/17 07:37:30;;;;;;;4.32;2.45;;;;;;;;;;5034195;28;20112;-74
2022/10/17 07:39:58;;;;;;;3.60;2.85;;;;;;;;;;5040756;28;20491;-73
2022/10/17 07:42:27;;;;;;;2.85;2.10;;;;;;;;;;5042747;28;20033;-74
2022/10/17 07:44:56;;;;;;;4.50;2.80;;;;;;;;;;5023240;28;20033;-73
2022/10/17 07:47:22;;;;;;;4.47;3.05;;;;;;;;;;5043074;28;20029;-73
2022/10/17 07:49:54;;;;;;;3.58;2.70;;;;;;;;;;5039055;28;20028;-73
2022/10/17 07:52:22;;;;;;;24.85;5.38;;;;;;;;;;5038359;28;20026;-74
2022/10/17 07:54:48;;;;;;;7.75;3.63;;;;;;;;;;5038561;28;20021;-73
2022/10/17 07:57:14;;;;;;;6.18;3.47;;;;;;;;;;5044246;28;20025;-73
2022/10/17 07:59:42;;;;;;;7.90;3.40;;;;;;;;;;5041720;28;20037;-73
2022/10/17 08:02:19;;;;;;;16.83;3.88;;;;;;;;;;5050999;28;20028;-73
2022/10/17 08:04:50;;;;;;;5.63;3.05;;;;;;;;;;5040145;28;20573;-73
2022/10/17 08:07:16;;;;;;;4.70;4.18;;;;;;;;;;5042499;28;20442;-73
2022/10/17 08:09:43;;;;;;;4.05;3.22;;;;;;;;;;5041342;28;20040;-72
2022/10/17 08:12:09;;;;;;;4.43;3.55;;;;;;;;;;5062842;28;20038;-75
2022/10/17 08:14:38;;;;;;;3.65;2.85;;;;;;;;;;5046675;28;20029;-74
2022/10/17 08:17:06;;;;;;;3.28;2.15;;;;;;;;;;5042768;28;20044;-73
2022/10/17 08:19:41;;;;;;;3.92;2.55;;;;;;;;;;5047732;28;20036;-73
2022/10/17 08:22:07;;;;;;;6.97;2.95;;;;;;;;;;5041359;28;20029;-73
2022/10/17 08:24:35;;;;;;;3.22;2.92;;;;;;;;;;5048814;28;20793;-74
2022/10/17 08:27:02;;;;;;;5.38;3.30;;;;;;;;;;5041365;28;20021;-73
2022/10/17 08:29:28;;;;;;;4.88;2.67;;;;;;;;;;5049873;28;20037;-73
2022/10/17 08:31:59;;;;;;;4.22;2.38;;;;;;;;;;5041036;28;20032;-74
2022/10/17 08:34:24;;;;;;;6.40;2.67;;;;;;;;;;5049691;28;20407;-73
2022/10/17 08:36:55;;;;;;;5.50;2.65;;;;;;;;;;5047957;28;20391;-74
2022/10/17 08:39:26;;;;;;;3.50;2.90;;;;;;;;;;5042805;28;20025;-74
2022/10/17 08:42:03;;;;;;;3.95;2.45;;;;;;;;;;5042501;28;20646;-75
2022/10/17 08:44:34;;;;;;;4.88;3.13;;;;;;;;;;5044569;28;20032;-74
2022/10/17 08:47:03;;;;;;;6.78;2.53;;;;;;;;;;5045141;28;20025;-74
2022/10/17 08:49:39;;;;;;;4.03;2.65;;;;;;;;;;5041985;28;20040;-75
2022/10/17 08:52:10;;;;;;;3.83;2.50;;;;;;;;;;5051359;28;20036;-75
2022/10/17 08:54:45;;;;;;;2.83;2.45;;;;;;;;;;5041615;28;20034;-74
2022/10/17 08:57:16;;;;;;;3.80;3.50;;;;;;;;;;5034672;28;20021;-74
2022/10/17 08:59:51;;;;;;;4.57;2.70;;;;;;;;;;5040253;28;20036;-74
2022/10/17 09:02:38;;;;;;;3.40;2.00;;;;;;;;;;5037394;28;20033;-74
2022/10/17 09:05:19;;;;;;;4.82;2.92;;;;;;;;;;5041395;28;20043;-73
2022/10/17 09:08:10;;;;;;;4.40;2.58;;;;;;;;;;5031536;28;20048;-73
2022/10/17 09:10:47;;;;;;;5.78;2.72;;;;;;;;;;5043616;28;20047;-74
2022/10/17 09:13:30;;;;;;;2.92;2.60;;;;;;;;;;5037176;28;20387;-74
2022/10/17 09:16:00;;;;;;;3.60;2.17;;;;;;;;;;5038484;28;20478;-74
2022/10/17 09:18:26;;;;;;;8.35;3.05;;;;;;;;;;5035791;28;20026;-74
2022/10/17 09:20:54;;;;;;;4.88;3.28;;;;;;;;;;5045712;28;20044;-74
2022/10/17 09:23:24;;;;;;;5.07;2.30;;;;;;;;;;5038414;28;20034;-74
2022/10/17 09:25:54;;;;;;;3.70;2.60;;;;;;;;;;5045127;28;20039;-74
2022/10/17 09:28:22;;;;;;;2.70;2.17;;;;;;;;;;5052480;28;20029;-73
2022/10/17 09:30:55;;;;;;;3.88;2.65;;;;;;;;;;5038563;28;20390;-73
2022/10/17 09:33:27;;;;;;;5.32;2.63;;;;;;;;;;5037639;28;20053;-75
2022/10/17 09:35:55;;;;;;;3.78;2.47;;;;;;;;;;5039190;28;20036;-75
2022/10/17 09:38:22;;;;;;;3.78;2.30;;;;;;;;;;5041865;28;20037;-75
2022/10/17 09:40:54;;;;;;;3.65;2.55;;;;;;;;;;5046524;28;20029;-75
2022/10/17 09:43:21;;;;;;;5.05;4.20;;;;;;;;;;5051294;28;20041;-75
2022/10/17 09:46:01;;;;;;;8.38;2.80;;;;;;;;;;5040164;28;20036;-75
2022/10/17 09:48:49;;;;;;;4.53;2.25;;;;;;;;;;5030225;28;20038;-75
2022/10/17 09:51:15;;;;;;;6.05;3.70;;;;;;;;;;5045920;28;20033;-74
2022/10/17 09:53:43;;;;;;;4.38;2.67;;;;;;;;;;5049941;28;20411;-74
2022/10/17 09:56:11;;;;;;;2.92;1.92;;;;;;;;;;5025979;28;20044;-74
2022/10/17 09:58:49;;;;;;;6.43;3.72;;;;;;;;;;5027686;28;20029;-74
2022/10/17 10:01:28;;;;;;;3.28;2.50;;;;;;;;;;5044357;28;20032;-74
2022/10/17 10:04:10;;;;;;;5.55;2.70;;;;;;;;;;5059437;28;20391;-75
2022/10/17 10:06:41;;;;;;;7.60;3.13;;;;;;;;;;5048193;28;20513;-75
2022/10/17 10:09:20;;;;;;;4.28;2.60;;;;;;;;;;5047039;28;20036;-75
2022/10/17 10:11:55;;;;;;;4.60;2.67;;;;;;;;;;5047635;28;20044;-74
2022/10/17 10:14:22;;;;;;;6.88;2.55;;;;;;;;;;5052473;28;20491;-74
2022/10/17 10:16:53;;;;;;;6.53;3.05;;;;;;;;;;5039760;28;20060;-74
2022/10/17 10:19:23;;;;;;;4.78;3.15;;;;;;;;;;5044827;28;20032;-73
2022/10/17 10:22:02;;;;;;;6.50;2.88;;;;;;;;;;5047399;28;20017;-74
2022/10/17 10:24:28;;;;;;;3.47;2.67;;;;;;;;;;5044509;28;20487;-74
2022/10/17 10:26:58;;;;;;;3.80;2.28;;;;;;;;;;5038391;28;20036;-76
2022/10/17 10:29:27;;;;;;;6.07;2.65;;;;;;;;;;5047504;28;20036;-74
2022/10/17 10:32:17;;;;;;;3.63;2.47;;;;;;;;;;5044276;28;20030;-74
2022/10/17 10:34:52;;;;;;;3.95;2.88;;;;;;;;;;5043825;28;20033;-74
2022/10/17 10:37:22;;;;;;;7.85;2.72;;;;;;;;;;5046051;28;20029;-74
2022/10/17 10:39:53;;;;;;;5.70;2.85;;;;;;;;;;5049821;28;20025;-74
2022/10/17 10:42:24;;;;;;;2.95;2.58;;;;;;;;;;5051196;28;20036;-74
2022/10/17 10:44:51;;;;;;;4.40;2.45;;;;;;;;;;5048183;28;20036;-74
2022/10/17 10:47:21;;;;;;;4.97;2.85;;;;;;;;;;5043255;28;20029;-73
2022/10/17 10:49:53;;;;;;;5.82;3.10;;;;;;;;;;5039796;28;20040;-73
2022/10/17 10:52:41;;;;;;;4.30;3.75;;;;;;;;;;5035458;28;20029;-74
2022/10/17 10:55:15;;;;;;;4.60;3.53;;;;;;;;;;5040257;28;20021;-73
2022/10/17 10:57:45;;;;;;;5.72;3.22;;;;;;;;;;5049181;28;20024;-74
2022/10/17 11:00:17;;;;;;;7.63;4.55;;;;;;;;;;5041948;28;20029;-74
2022/10/17 11:03:02;;;;;;;15.77;3.83;;;;;;;;;;5045758;28;20505;-74
2022/10/17 11:05:34;;;;;;;5.90;2.47;;;;;;;;;;5020280;28;20041;-74
2022/10/17 11:08:10;;;;;;;5.93;3.33;;;;;;;;;;5043133;28;20032;-73
2022/10/17 11:10:43;;;;;;;5.63;2.45;;;;;;;;;;5045125;28;20306;-74
2022/10/17 11:13:28;;;;;;;9.27;3.60;;;;;;;;;;5043040;28;20036;-74
2022/10/17 11:15:56;;;;;;;7.27;2.30;;;;;;;;;;5044229;28;20029;-74
2022/10/17 11:18:50;;;;;;;6.40;3.00;;;;;;;;;;5051034;28;20021;-74
2022/10/17 11:21:29;;;;;;;6.40;3.08;;;;;;;;;;4999293;28;20040;-74
2022/10/17 11:23:55;;;;;;;4.18;2.58;;;;;;;;;;5050237;28;20045;-73
2022/10/17 11:26:27;;;;;;;6.18;3.38;;;;;;;;;;5044854;28;20033;-74
2022/10/17 11:28:59;;;;;;;5.03;3.35;;;;;;;;;;5047450;28;20029;-74
2022/10/17 11:31:29;;;;;;;5.80;2.92;;;;;;;;;;5045378;28;20036;-74
2022/10/17 11:34:19;;;;;;;4.47;3.13;;;;;;;;;;5042063;28;20486;-74
2022/10/17 11:36:46;;;;;;;6.90;2.88;;;;;;;;;;5032653;28;20040;-74
2022/10/17 11:39:21;;;;;;;6.10;2.67;;;;;;;;;;5051587;28;20021;-74
2022/10/17 11:41:50;;;;;;;11.50;3.78;;;;;;;;;;5044696;28;20051;-74
2022/10/17 11:44:26;;;;;;;10.52;3.10;;;;;;;;;;5042356;28;20491;-74
2022/10/17 11:47:14;;;;;;;4.60;2.20;;;;;;;;;;5044593;28;20029;-74
2022/10/17 11:49:43;;;;;;;9.95;3.22;;;;;;;;;;5030663;22;20057;-80
2022/10/17 11:52:11;;;;;;;3.70;2.85;;;;;;;;;;5010707;28;20037;-80
2022/10/17 11:54:40;;;;;;;5.38;3.08;;;;;;;;;;5032565;28;20029;-80
2022/10/17 11:57:23;;;;;;;4.88;3.28;;;;;;;;;;5030694;28;20037;-80
2022/10/17 11:59:57;;;;;;;4.20;2.28;;;;;;;;;;5011726;28;20033;-80
2022/10/17 12:02:25;;;;;;;8.07;3.42;;;;;;;;;;5009540;28;20033;-80
2022/10/17 12:05:06;;;;;;;4.80;2.35;;;;;;;;;;5011185;28;20042;-80
2022/10/17 12:07:52;;;;;;;5.57;2.72;;;;;;;;;;4987679;28;20037;-80
2022/10/17 12:10:24;;;;;;;9.93;2.60;;;;;;;;;;5008628;28;20037;-79
2022/10/17 12:12:55;;;;;;;6.13;3.03;;;;;;;;;;5010716;28;20036;-79
2022/10/17 12:15:26;;;;;;;10.35;2.60;;;;;;;;;;5011323;28;20021;-80
2022/10/17 12:17:57;;;;;;;6.07;3.42;;;;;;;;;;5025321;28;20026;-80
2022/10/17 12:20:27;;;;;;;3.85;3.05;;;;;;;;;;5025726;28;20030;-80
2022/10/17 12:22:58;;;;;;;3.83;2.72;;;;;;;;;;5026452;28;20113;-80
2022/10/17 12:25:32;;;;;;;14.88;2.83;;;;;;;;;;5010600;28;20033;-80
2022/10/17 12:28:06;;;;;;;3.63;3.08;;;;;;;;;;5003870;28;20037;-80
2022/10/17 12:30:34;;;;;;;5.22;2.88;;;;;;;;;;5011232;28;20030;-80
2022/10/17 12:33:21;;;;;;;7.03;2.92;;;;;;;;;;5010674;28;20033;-80
2022/10/17 12:36:09;;;;;;;3.95;2.60;;;;;;;;;;5010706;28;20037;-81
2022/10/17 12:38:35;;;;;;;3.00;2.08;;;;;;;;;;5008722;28;20030;-80
2022/10/17 12:41:01;;;;;;;6.35;2.90;;;;;;;;;;5010210;28;20080;-79
2022/10/17 12:43:30;;;;;;;7.05;3.05;;;;;;;;;;5005448;28;20038;-80
2022/10/17 12:46:02;;;;;;;4.10;2.50;;;;;;;;;;5010130;28;20480;-80
2022/10/17 12:48:32;;;;;;;4.40;2.17;;;;;;;;;;5012428;28;20036;-80
2022/10/17 12:51:10;;;;;;;3.85;2.03;;;;;;;;;;5003535;28;20030;-80
2022/10/17 12:53:45;;;;;;;6.78;2.90;;;;;;;;;;5011169;28;20041;-80
2022/10/17 12:56:15;;;;;;;3.80;2.50;;;;;;;;;;5012068;28;20053;-80
2022/10/17 12:58:48;;;;;;;4.45;2.53;;;;;;;;;;5025160;28;20026;-80
2022/10/17 13:01:23;;;;;;;3.63;2.40;;;;;;;;;;5005195;28;20097;-80
2022/10/17 13:03:52;;;;;;;5.72;2.75;;;;;;;;;;5002686;28;20048;-80
2022/10/17 13:06:22;;;;;;;3.47;2.55;;;;;;;;;;5011807;28;20038;-80
2022/10/17 13:08:57;;;;;;;3.88;2.40;;;;;;;;;;5012107;28;20034;-80
2022/10/17 13:11:26;;;;;;;8.93;3.43;;;;;;;;;;5006594;28;20535;-80
2022/10/17 13:13:53;;;;;;;3.15;2.85;;;;;;;;;;4998945;28;20034;-79
2022/10/17 13:16:35;;;;;;;2.50;1.98;;;;;;;;;;4991031;28;20042;-80
2022/10/17 13:19:11;;;;;;;5.25;3.13;;;;;;;;;;4991984;28;20030;-80
2022/10/17 13:21:47;;;;;;;7.45;2.63;;;;;;;;;;5011940;28;20037;-79
2022/10/17 13:24:27;;;;;;;7.95;2.58;;;;;;;;;;5004366;28;20033;-80
2022/10/17 13:26:56;;;;;;;8.60;2.78;;;;;;;;;;4992890;28;20038;-79
2022/10/17 13:29:27;;;;;;;2.60;2.40;;;;;;;;;;4990957;28;20105;-79
2022/10/17 13:32:00;;;;;;;4.00;2.42;;;;;;;;;;4997478;28;20365;-79
2022/10/17 13:34:28;;;;;;;3.42;2.10;;;;;;;;;;5007417;28;20048;-79
2022/10/17 13:36:58;;;;;;;5.63;2.50;;;;;;;;;;5031045;28;20045;-79
2022/10/17 13:39:28;;;;;;;2.25;1.98;;;;;;;;;;5015683;28;20396;-79
2022/10/17 13:41:56;;;;;;;8.30;2.22;;;;;;;;;;5015573;28;20516;-79
2022/10/17 13:44:30;;;;;;;8.57;2.40;;;;;;;;;;5009968;28;20396;-79
2022/10/17 13:46:59;;;;;;;3.08;2.60;;;;;;;;;;5030426;28;20038;-79
2022/10/17 13:49:29;;;;;;;3.40;2.28;;;;;;;;;;5030460;28;20041;-79
2022/10/17 13:51:56;;;;;;;3.20;2.05;;;;;;;;;;5014693;28;20030;-80
2022/10/17 13:54:41;;;;;;;7.30;2.92;;;;;;;;;;5007844;28;20338;-80
2022/10/17 13:57:19;;;;;;;5.07;2.38;;;;;;;;;;5014996;28;20029;-80
2022/10/17 13:59:48;;;;;;;3.88;2.78;;;;;;;;;;5014191;28;20026;-80
2022/10/17 14:02:18;;;;;;;3.75;2.65;;;;;;;;;;5014868;28;20381;-80
2022/10/17 14:04:46;;;;;;;10.95;2.92;;;;;;;;;;5005739;28;20455;-80
2022/10/17 14:07:34;;;;;;;3.05;2.40;;;;;;;;;;5013911;28;20037;-80
2022/10/17 14:10:00;;;;;;;4.47;2.85;;;;;;;;;;5013896;28;20033;-80
2022/10/17 14:12:31;;;;;;;5.53;2.90;;;;;;;;;;5014284;28;20387;-80
2022/10/17 14:15:03;;;;;;;4.88;3.20;;;;;;;;;;5019014;28;20035;-80
2022/10/17 14:17:31;;;;;;;9.60;2.60;;;;;;;;;;4995523;28;20390;-80
2022/10/17 14:20:02;;;;;;;6.32;3.22;;;;;;;;;;5010344;28;20041;-78
2022/10/17 14:22:29;;;;;;;10.45;3.28;;;;;;;;;;5020616;28;20030;-78
2022/10/17 14:24:55;;;;;;;4.13;3.22;;;;;;;;;;5006620;28;20026;-78
2022/10/17 14:27:26;;;;;;;3.33;2.58;;;;;;;;;;5014870;28;20536;-78
2022/10/17 14:30:02;;;;;;;2.92;2.28;;;;;;;;;;5029735;28;20056;-78
2022/10/17 14:32:33;;;;;;;5.28;2.80;;;;;;;;;;5014133;28;20045;-78
2022/10/17 14:35:04;;;;;;;14.07;4.65;;;;;;;;;;5007204;28;20040;-78
2022/10/17 14:37:38;;;;;;;5.93;3.17;;;;;;;;;;5013554;28;20033;-79
2022/10/17 14:40:07;;;;;;;4.78;2.72;;;;;;;;;;5014514;28;20029;-79
2022/10/17 14:42:38;;;;;;;6.00;2.83;;;;;;;;;;5013563;28;20033;-79
2022/10/17 14:45:11;;;;;;;4.55;2.58;;;;;;;;;;5006677;28;20041;-79
2022/10/17 14:47:36;;;;;;;;;;;;;;;;;;5015027;28;20022;-79
2022/10/17 14:50:18;;;;;;;5.68;3.10;;;;;;;;;;5014094;28;19967;-79
2022/10/17 14:52:57;;;;;;;7.13;4.43;;;;;;;;;;5011025;28;20373;-79
2022/10/17 14:55:26;;;;;;;12.05;3.58;;;;;;;;;;5002992;28;20030;-79
2022/10/17 14:57:56;;;;;;;5.38;2.63;;;;;;;;;;5008534;28;20026;-79
2022/10/17 15:00:23;;;;;;;9.43;2.72;;;;;;;;;;4996714;28;20026;-79
2022/10/17 15:02:52;;;;;;;10.15;4.30;;;;;;;;;;5013007;28;20029;-80
2022/10/17 15:05:22;;;;;;;7.90;3.67;;;;;;;;;;5004881;28;20487;-78
2022/10/17 15:07:50;;;;;;;7.43;3.05;;;;;;;;;;5009997;28;20026;-78